sensor_id;sensor_type;location;lat;lon;timestamp;pressure;altitude;pressure_sealevel;temperature;humidity
43155;BME280;34212;51.018;13.586;2023-02-18T00:01:13;98030.66;;;9.03;97.71
43155;BME280;34212;51.018;13.586;2023-02-18T00:06:16;98030.88;;;9.10;98.34
43155;BME280;34212;51.018;13.586;2023-02-18T00:11:18;98027.53;;;9.16;97.81
43155;BME280;34212;51.018;13.586;2023-02-18T00:16:20;98028.03;;;9.19;97.86
43155;BME280;34212;51.018;13.586;2023-02-18T00:21:22;98040.34;;;9.20;96.92
43155;BME280;34212;51.018;13.586;2023-02-18T00:26:24;98028.03;;;9.19;97.02
43155;BME280;34212;51.018;13.586;2023-02-18T00:31:31;98026.69;;;9.15;97.02
43155;BME280;34212;51.018;13.586;2023-02-18T00:36:34;98027.03;;;9.12;96.56
43155;BME280;34212;51.018;13.586;2023-02-18T00:41:37;98034.84;;;9.14;97.00
43155;BME280;34212;51.018;13.586;2023-02-18T00:46:39;98041.00;;;9.14;96.47
43155;BME280;34212;51.018;13.586;2023-02-18T00:51:41;98050.81;;;9.14;96.10
43155;BME280;34212;51.018;13.586;2023-02-18T00:56:42;98042.97;;;9.12;96.04
43155;BME280;34212;51.018;13.586;2023-02-18T01:01:44;98046.97;;;9.08;95.06
43155;BME280;34212;51.018;13.586;2023-02-18T01:06:45;98049.28;;;9.03;95.05
43155;BME280;34212;51.018;13.586;2023-02-18T01:11:47;98043.66;;;8.98;95.19
43155;BME280;34212;51.018;13.586;2023-02-18T01:16:48;98049.63;;;8.92;94.90
43155;BME280;34212;51.018;13.586;2023-02-18T01:21:50;98063.25;;;8.89;94.44
43155;BME280;34212;51.018;13.586;2023-02-18T01:26:51;98057.41;;;8.85;94.05
43155;BME280;34212;51.018;13.586;2023-02-18T01:31:53;98049.41;;;8.77;94.07
43155;BME280;34212;51.018;13.586;2023-02-18T01:36:55;98041.25;;;8.70;93.30
43155;BME280;34212;51.018;13.586;2023-02-18T01:41:56;98030.59;;;8.62;93.67
43155;BME280;34212;51.018;13.586;2023-02-18T01:46:58;98030.41;;;8.55;93.12
43155;BME280;34212;51.018;13.586;2023-02-18T01:52:06;98051.50;;;8.49;92.88
43155;BME280;34212;51.018;13.586;2023-02-18T01:57:11;98022.22;;;8.41;92.67
43155;BME280;34212;51.018;13.586;2023-02-18T02:02:18;98027.81;;;8.38;93.06
43155;BME280;34212;51.018;13.586;2023-02-18T02:07:22;98025.16;;;8.38;93.19
43155;BME280;34212;51.018;13.586;2023-02-18T02:28:39;98045.81;;;8.44;94.07
43155;BME280;34212;51.018;13.586;2023-02-18T02:45:03;98043.16;;;8.44;93.36
43155;BME280;34212;51.018;13.586;2023-02-18T02:49:48;98040.16;;;8.39;92.90
43155;BME280;34212;51.018;13.586;2023-02-18T02:54:53;98052.72;;;8.37;93.34
43155;BME280;34212;51.018;13.586;2023-02-18T02:59:59;98045.75;;;8.36;92.89
43155;BME280;34212;51.018;13.586;2023-02-18T03:10:57;98039.94;;;8.32;93.15
43155;BME280;34212;51.018;13.586;2023-02-18T03:16:34;98038.13;;;8.32;92.85
43155;BME280;34212;51.018;13.586;2023-02-18T03:21:48;98045.91;;;8.34;92.90
43155;BME280;34212;51.018;13.586;2023-02-18T03:26:58;98036.28;;;8.33;92.82
43155;BME280;34212;51.018;13.586;2023-02-18T03:32:04;98031.09;;;8.31;93.02
43155;BME280;34212;51.018;13.586;2023-02-18T03:37:07;98043.44;;;8.32;93.07
43155;BME280;34212;51.018;13.586;2023-02-18T03:42:10;98033.44;;;8.34;93.70
43155;BME280;34212;51.018;13.586;2023-02-18T03:47:11;98025.16;;;8.38;93.00
43155;BME280;34212;51.018;13.586;2023-02-18T03:52:13;98031.19;;;8.40;92.96
43155;BME280;34212;51.018;13.586;2023-02-18T03:57:14;98027.53;;;8.41;93.75
43155;BME280;34212;51.018;13.586;2023-02-18T04:02:16;98023.56;;;8.45;94.04
43155;BME280;34212;51.018;13.586;2023-02-18T04:07:17;98028.88;;;8.45;93.21
43155;BME280;34212;51.018;13.586;2023-02-18T04:12:19;98031.88;;;8.50;93.78
43155;BME280;34212;51.018;13.586;2023-02-18T04:17:21;98041.22;;;8.54;93.33
43155;BME280;34212;51.018;13.586;2023-02-18T04:22:22;98042.88;;;8.55;93.28
43155;BME280;34212;51.018;13.586;2023-02-18T04:27:24;98035.91;;;8.54;92.37
43155;BME280;34212;51.018;13.586;2023-02-18T04:32:25;98036.03;;;8.52;91.02
43155;BME280;34212;51.018;13.586;2023-02-18T04:37:27;98037.19;;;8.50;89.86
43155;BME280;34212;51.018;13.586;2023-02-18T04:42:28;98024.75;;;8.50;89.52
43155;BME280;34212;51.018;13.586;2023-02-18T04:47:30;98019.78;;;8.47;89.25
43155;BME280;34212;51.018;13.586;2023-02-18T04:52:31;98012.63;;;8.48;89.31
43155;BME280;34212;51.018;13.586;2023-02-18T04:57:33;98010.63;;;8.50;88.78
43155;BME280;34212;51.018;13.586;2023-02-18T05:02:34;98025.72;;;8.49;88.70
43155;BME280;34212;51.018;13.586;2023-02-18T05:07:36;98023.25;;;8.48;88.62
43155;BME280;34212;51.018;13.586;2023-02-18T05:12:37;98038.84;;;8.43;88.39
43155;BME280;34212;51.018;13.586;2023-02-18T05:17:39;98033.69;;;8.41;88.92
43155;BME280;34212;51.018;13.586;2023-02-18T05:22:40;98014.41;;;8.39;89.12
43155;BME280;34212;51.018;13.586;2023-02-18T05:27:43;98001.19;;;8.21;89.80
43155;BME280;34212;51.018;13.586;2023-02-18T05:32:44;98004.16;;;8.10;91.44
43155;BME280;34212;51.018;13.586;2023-02-18T05:37:46;97993.84;;;8.07;91.80
43155;BME280;34212;51.018;13.586;2023-02-18T05:42:47;97999.97;;;8.07;92.59
43155;BME280;34212;51.018;13.586;2023-02-18T05:47:49;97984.69;;;8.09;93.32
43155;BME280;34212;51.018;13.586;2023-02-18T05:52:50;97966.31;;;8.16;93.47
43155;BME280;34212;51.018;13.586;2023-02-18T05:57:51;97967.34;;;8.23;93.89
43155;BME280;34212;51.018;13.586;2023-02-18T06:02:53;97978.47;;;8.27;93.42
43155;BME280;34212;51.018;13.586;2023-02-18T06:07:54;97975.63;;;8.28;93.69
43155;BME280;34212;51.018;13.586;2023-02-18T06:12:57;97972.31;;;8.26;93.97
43155;BME280;34212;51.018;13.586;2023-02-18T06:17:58;97966.81;;;8.20;94.65
43155;BME280;34212;51.018;13.586;2023-02-18T06:23:00;97963.50;;;8.18;95.13
43155;BME280;34212;51.018;13.586;2023-02-18T06:28:01;97961.84;;;8.17;96.07
43155;BME280;34212;51.018;13.586;2023-02-18T06:33:02;97976.94;;;8.16;96.16
43155;BME280;34212;51.018;13.586;2023-02-18T06:38:05;97971.47;;;8.18;96.23
43155;BME280;34212;51.018;13.586;2023-02-18T06:43:06;97968.63;;;8.19;96.12
43155;BME280;34212;51.018;13.586;2023-02-18T06:48:07;97957.69;;;8.22;96.60
43155;BME280;34212;51.018;13.586;2023-02-18T06:53:09;97949.06;;;8.28;97.12
43155;BME280;34212;51.018;13.586;2023-02-18T06:58:12;97939.78;;;8.32;96.58
43155;BME280;34212;51.018;13.586;2023-02-18T07:03:14;97941.13;;;8.37;97.42
43155;BME280;34212;51.018;13.586;2023-02-18T07:08:16;97954.28;;;8.38;96.79
43155;BME280;34212;51.018;13.586;2023-02-18T07:13:18;97939.81;;;8.41;97.80
43155;BME280;34212;51.018;13.586;2023-02-18T07:18:19;97929.72;;;8.44;98.01
43155;BME280;34212;51.018;13.586;2023-02-18T07:23:21;97940.34;;;8.52;97.50
43155;BME280;34212;51.018;13.586;2023-02-18T07:28:22;97934.88;;;8.62;97.27
43155;BME280;34212;51.018;13.586;2023-02-18T07:33:24;97939.22;;;8.71;96.83
43155;BME280;34212;51.018;13.586;2023-02-18T07:38:26;97932.59;;;8.75;97.31
43155;BME280;34212;51.018;13.586;2023-02-18T07:43:28;97918.97;;;8.78;97.80
43155;BME280;34212;51.018;13.586;2023-02-18T07:48:29;97905.16;;;8.91;97.44
43155;BME280;34212;51.018;13.586;2023-02-18T07:53:31;97895.84;;;9.04;96.77
43155;BME280;34212;51.018;13.586;2023-02-18T07:58:35;97881.69;;;9.11;97.31
43155;BME280;34212;51.018;13.586;2023-02-18T08:03:37;97871.38;;;9.16;97.30
43155;BME280;34212;51.018;13.586;2023-02-18T08:08:38;97865.69;;;9.28;96.94
43155;BME280;34212;51.018;13.586;2023-02-18T08:13:40;97861.19;;;9.36;97.01
43155;BME280;34212;51.018;13.586;2023-02-18T08:18:41;97857.00;;;9.42;96.49
43155;BME280;34212;51.018;13.586;2023-02-18T08:23:43;97839.38;;;9.41;96.52
43155;BME280;34212;51.018;13.586;2023-02-18T08:28:45;97839.88;;;9.44;96.73
43155;BME280;34212;51.018;13.586;2023-02-18T08:33:47;97822.72;;;9.47;97.04
43155;BME280;34212;51.018;13.586;2023-02-18T08:38:49;97813.72;;;9.48;96.85
43155;BME280;34212;51.018;13.586;2023-02-18T08:43:50;97794.75;;;9.51;96.70
43155;BME280;34212;51.018;13.586;2023-02-18T08:48:52;97787.41;;;9.53;97.17
43155;BME280;34212;51.018;13.586;2023-02-18T08:53:53;97786.06;;;9.57;96.87
43155;BME280;34212;51.018;13.586;2023-02-18T08:58:55;97782.72;;;9.63;97.48
43155;BME280;34212;51.018;13.586;2023-02-18T09:03:57;97766.69;;;9.71;97.13
43155;BME280;34212;51.018;13.586;2023-02-18T09:08:59;97755.81;;;9.81;98.02
43155;BME280;34212;51.018;13.586;2023-02-18T09:14:00;97748.69;;;9.97;97.95
43155;BME280;34212;51.018;13.586;2023-02-18T09:19:03;97747.84;;;10.04;97.22
43155;BME280;34212;51.018;13.586;2023-02-18T09:24:05;97739.47;;;10.07;97.15
43155;BME280;34212;51.018;13.586;2023-02-18T09:29:06;97739.78;;;10.12;97.15
43155;BME280;34212;51.018;13.586;2023-02-18T09:34:08;97731.34;;;10.24;97.80
43155;BME280;34212;51.018;13.586;2023-02-18T09:39:10;97710.47;;;10.35;97.93
43155;BME280;34212;51.018;13.586;2023-02-18T09:44:15;97701.38;;;10.45;97.90
43155;BME280;34212;51.018;13.586;2023-02-18T09:49:22;97709.00;;;10.48;97.51
43155;BME280;34212;51.018;13.586;2023-02-18T09:54:26;97692.19;;;10.47;97.68
43155;BME280;34212;51.018;13.586;2023-02-18T09:59:28;97689.44;;;10.55;97.88
43155;BME280;34212;51.018;13.586;2023-02-18T10:04:38;97685.22;;;10.61;98.32
43155;BME280;34212;51.018;13.586;2023-02-18T10:09:41;97673.06;;;10.58;97.42
43155;BME280;34212;51.018;13.586;2023-02-18T10:14:48;97684.09;;;10.55;98.41
43155;BME280;34212;51.018;13.586;2023-02-18T10:19:51;97669.13;;;10.54;98.44
43155;BME280;34212;51.018;13.586;2023-02-18T10:25:03;97657.72;;;10.60;98.66
43155;BME280;34212;51.018;13.586;2023-02-18T10:35:51;97638.84;;;10.77;98.74
43155;BME280;34212;51.018;13.586;2023-02-18T10:51:46;97605.28;;;10.68;98.43
43155;BME280;34212;51.018;13.586;2023-02-18T10:56:50;97599.50;;;10.79;98.92
43155;BME280;34212;51.018;13.586;2023-02-18T11:01:57;97583.84;;;10.91;98.87
43155;BME280;34212;51.018;13.586;2023-02-18T11:07:05;97580.66;;;11.02;98.47
43155;BME280;34212;51.018;13.586;2023-02-18T11:12:15;97557.66;;;11.16;98.37
43155;BME280;34212;51.018;13.586;2023-02-18T11:17:29;97529.94;;;11.17;97.24
43155;BME280;34212;51.018;13.586;2023-02-18T11:22:34;97523.38;;;11.19;97.69
43155;BME280;34212;51.018;13.586;2023-02-18T11:27:45;97512.00;;;11.32;97.29
43155;BME280;34212;51.018;13.586;2023-02-18T11:32:53;97530.47;;;11.33;96.65
43155;BME280;34212;51.018;13.586;2023-02-18T11:38:01;97510.97;;;11.33;96.16
43155;BME280;34212;51.018;13.586;2023-02-18T11:43:14;97499.69;;;11.31;96.27
43155;BME280;34212;51.018;13.586;2023-02-18T11:48:17;97502.75;;;11.28;96.38
43155;BME280;34212;51.018;13.586;2023-02-18T11:53:30;97502.41;;;11.16;96.22
43155;BME280;34212;51.018;13.586;2023-02-18T11:58:38;97502.09;;;11.04;96.84
43155;BME280;34212;51.018;13.586;2023-02-18T12:04:11;97487.59;;;10.92;96.83
43155;BME280;34212;51.018;13.586;2023-02-18T12:09:19;97483.78;;;10.80;97.03
43155;BME280;34212;51.018;13.586;2023-02-18T12:14:23;97482.88;;;10.73;97.68
43155;BME280;34212;51.018;13.586;2023-02-18T12:36:02;97475.59;;;10.81;98.55
43155;BME280;34212;51.018;13.586;2023-02-18T12:47:26;97481.28;;;10.57;96.80
43155;BME280;34212;51.018;13.586;2023-02-18T13:03:41;97480.19;;;10.22;97.62
43155;BME280;34212;51.018;13.586;2023-02-18T13:08:56;97474.69;;;10.08;97.93
43155;BME280;34212;51.018;13.586;2023-02-18T13:14:22;97454.75;;;10.04;97.94
43155;BME280;34212;51.018;13.586;2023-02-18T13:19:30;97457.44;;;10.04;97.27
43155;BME280;34212;51.018;13.586;2023-02-18T13:24:36;97448.41;;;10.05;98.21
43155;BME280;34212;51.018;13.586;2023-02-18T13:29:55;97464.22;;;10.07;97.12
43155;BME280;34212;51.018;13.586;2023-02-18T13:40:20;97458.28;;;9.75;96.86
43155;BME280;34212;51.018;13.586;2023-02-18T13:45:31;97453.19;;;9.65;97.34
43155;BME280;34212;51.018;13.586;2023-02-18T13:50:41;97464.50;;;9.67;97.51
43155;BME280;34212;51.018;13.586;2023-02-18T13:56:20;97469.88;;;9.59;96.62
43155;BME280;34212;51.018;13.586;2023-02-18T14:01:24;97478.78;;;9.52;96.83
43155;BME280;34212;51.018;13.586;2023-02-18T14:06:34;97472.34;;;9.46;97.00
43155;BME280;34212;51.018;13.586;2023-02-18T14:11:57;97469.06;;;9.44;97.21
43155;BME280;34212;51.018;13.586;2023-02-18T14:22:27;97470.41;;;9.40;96.70
43155;BME280;34212;51.018;13.586;2023-02-18T14:27:32;97476.91;;;9.37;96.72
43155;BME280;34212;51.018;13.586;2023-02-18T14:32:33;97464.47;;;9.38;97.28
43155;BME280;34212;51.018;13.586;2023-02-18T14:37:57;97470.41;;;9.40;97.23
43155;BME280;34212;51.018;13.586;2023-02-18T14:48:40;97475.38;;;9.43;96.00
43155;BME280;34212;51.018;13.586;2023-02-18T14:53:45;97488.53;;;9.44;96.24
43155;BME280;34212;51.018;13.586;2023-02-18T14:58:54;97507.63;;;9.48;96.50
43155;BME280;34212;51.018;13.586;2023-02-18T15:03:57;97524.19;;;9.35;95.97
43155;BME280;34212;51.018;13.586;2023-02-18T15:09:00;97538.09;;;9.22;96.76
43155;BME280;34212;51.018;13.586;2023-02-18T15:14:08;97516.50;;;9.17;96.84
43155;BME280;34212;51.018;13.586;2023-02-18T15:19:14;97514.03;;;9.16;97.28
43155;BME280;34212;51.018;13.586;2023-02-18T15:24:37;97522.50;;;9.19;97.17
43155;BME280;34212;51.018;13.586;2023-02-18T15:29:39;97517.78;;;9.21;97.01
43155;BME280;34212;51.018;13.586;2023-02-18T15:34:42;97533.25;;;9.26;96.73
43155;BME280;34212;51.018;13.586;2023-02-18T15:39:45;97549.69;;;9.30;96.67
43155;BME280;34212;51.018;13.586;2023-02-18T15:44:49;97530.16;;;9.37;96.32
43155;BME280;34212;51.018;13.586;2023-02-18T15:49:54;97540.28;;;9.42;96.14
43155;BME280;34212;51.018;13.586;2023-02-18T15:55:02;97553.69;;;9.48;95.32
43155;BME280;34212;51.018;13.586;2023-02-18T16:00:18;97548.81;;;9.52;95.24
43155;BME280;34212;51.018;13.586;2023-02-18T16:05:24;97571.41;;;9.56;94.42
43155;BME280;34212;51.018;13.586;2023-02-18T16:15:38;97558.59;;;9.60;94.82
43155;BME280;34212;51.018;13.586;2023-02-18T16:20:40;97565.38;;;9.62;94.44
43155;BME280;34212;51.018;13.586;2023-02-18T16:25:48;97568.69;;;9.64;94.64
43155;BME280;34212;51.018;13.586;2023-02-18T16:30:49;97572.00;;;9.66;94.05
43155;BME280;34212;51.018;13.586;2023-02-18T16:35:51;97579.63;;;9.69;94.04
43155;BME280;34212;51.018;13.586;2023-02-18T16:40:53;97608.09;;;9.69;94.54
43155;BME280;34212;51.018;13.586;2023-02-18T16:45:56;97592.97;;;9.69;93.89
43155;BME280;34212;51.018;13.586;2023-02-18T16:51:02;97598.91;;;9.71;94.23
43155;BME280;34212;51.018;13.586;2023-02-18T16:56:12;97598.75;;;9.73;93.88
43155;BME280;34212;51.018;13.586;2023-02-18T17:01:29;97617.03;;;9.76;93.37
43155;BME280;34212;51.018;13.586;2023-02-18T17:06:32;97604.72;;;9.75;93.13
43155;BME280;34212;51.018;13.586;2023-02-18T17:11:34;97651.53;;;9.69;93.34
43155;BME280;34212;51.018;13.586;2023-02-18T17:16:36;97624.66;;;9.56;93.56
43155;BME280;34212;51.018;13.586;2023-02-18T17:21:38;97632.28;;;9.36;94.26
43155;BME280;34212;51.018;13.586;2023-02-18T17:26:39;97626.88;;;9.21;95.04
43155;BME280;34212;51.018;13.586;2023-02-18T17:31:43;97639.91;;;9.16;95.44
43155;BME280;34212;51.018;13.586;2023-02-18T17:36:47;97643.56;;;9.15;95.77
43155;BME280;34212;51.018;13.586;2023-02-18T17:41:49;97638.56;;;9.12;95.43
43155;BME280;34212;51.018;13.586;2023-02-18T17:46:50;97648.41;;;9.12;95.10
43155;BME280;34212;51.018;13.586;2023-02-18T17:51:52;97651.19;;;9.18;95.05
43155;BME280;34212;51.018;13.586;2023-02-18T17:56:54;97667.47;;;9.23;95.09
43155;BME280;34212;51.018;13.586;2023-02-18T18:01:55;97683.78;;;9.20;95.69
43155;BME280;34212;51.018;13.586;2023-02-18T18:06:57;97678.09;;;9.23;95.87
43155;BME280;34212;51.018;13.586;2023-02-18T18:11:59;97666.78;;;9.30;94.72
43155;BME280;34212;51.018;13.586;2023-02-18T18:17:01;97713.44;;;9.40;95.37
43155;BME280;34212;51.018;13.586;2023-02-18T18:22:06;97692.28;;;9.47;93.45
43155;BME280;34212;51.018;13.586;2023-02-18T18:27:08;97713.63;;;9.39;93.73
43155;BME280;34212;51.018;13.586;2023-02-18T18:32:10;97733.66;;;9.18;94.74
43155;BME280;34212;51.018;13.586;2023-02-18T18:37:12;97727.72;;;9.08;95.75
43155;BME280;34212;51.018;13.586;2023-02-18T18:42:13;97721.94;;;9.05;96.22
43155;BME280;34212;51.018;13.586;2023-02-18T18:47:15;97714.44;;;9.08;96.38
43155;BME280;34212;51.018;13.586;2023-02-18T18:52:17;97727.03;;;9.14;95.78
43155;BME280;34212;51.018;13.586;2023-02-18T18:57:19;97727.03;;;9.22;95.75
43155;BME280;34212;51.018;13.586;2023-02-18T19:02:21;97706.03;;;9.28;95.88
43155;BME280;34212;51.018;13.586;2023-02-18T19:07:25;97726.97;;;9.31;94.85
43155;BME280;34212;51.018;13.586;2023-02-18T19:12:30;97735.25;;;9.36;94.54
43155;BME280;34212;51.018;13.586;2023-02-18T19:17:34;97734.72;;;9.40;95.03
43155;BME280;34212;51.018;13.586;2023-02-18T19:22:36;97742.44;;;9.35;94.72
43155;BME280;34212;51.018;13.586;2023-02-18T19:27:40;97734.78;;;9.32;94.80
43155;BME280;34212;51.018;13.586;2023-02-18T19:32:44;97737.94;;;9.28;95.28
43155;BME280;34212;51.018;13.586;2023-02-18T19:37:48;97744.59;;;9.32;95.26
43155;BME280;34212;51.018;13.586;2023-02-18T19:42:51;97758.22;;;9.37;95.22
43155;BME280;34212;51.018;13.586;2023-02-18T19:47:57;97754.56;;;9.38;95.13
43155;BME280;34212;51.018;13.586;2023-02-18T19:52:58;97756.22;;;9.39;94.61
43155;BME280;34212;51.018;13.586;2023-02-18T19:58:00;97769.69;;;9.37;94.82
43155;BME280;34212;51.018;13.586;2023-02-18T20:03:03;97753.56;;;9.31;95.24
43155;BME280;34212;51.018;13.586;2023-02-18T20:08:09;97767.22;;;9.28;95.37
43155;BME280;34212;51.018;13.586;2023-02-18T20:13:17;97764.91;;;9.24;95.38
43155;BME280;34212;51.018;13.586;2023-02-18T20:18:42;97764.28;;;9.22;94.97
43155;BME280;34212;51.018;13.586;2023-02-18T20:23:44;97764.91;;;9.24;94.93
43155;BME280;34212;51.018;13.586;2023-02-18T20:28:47;97763.94;;;9.25;95.52
43155;BME280;34212;51.018;13.586;2023-02-18T20:33:49;97776.88;;;9.29;95.33
43155;BME280;34212;51.018;13.586;2023-02-18T20:38:53;97792.84;;;9.29;95.23
43155;BME280;34212;51.018;13.586;2023-02-18T20:43:58;97787.22;;;9.23;95.26
43155;BME280;34212;51.018;13.586;2023-02-18T20:49:21;97798.53;;;9.25;95.75
43155;BME280;34212;51.018;13.586;2023-02-18T20:54:23;97783.19;;;9.28;95.58
43155;BME280;34212;51.018;13.586;2023-02-18T20:59:32;97779.38;;;9.30;94.69
43155;BME280;34212;51.018;13.586;2023-02-18T21:04:36;97786.88;;;9.27;95.32
43155;BME280;34212;51.018;13.586;2023-02-18T21:09:41;97773.56;;;9.27;95.08
43155;BME280;34212;51.018;13.586;2023-02-18T21:15:01;97780.25;;;9.22;94.84
43155;BME280;34212;51.018;13.586;2023-02-18T21:20:49;97768.91;;;9.29;95.53
43155;BME280;34212;51.018;13.586;2023-02-18T21:26:58;97776.19;;;9.35;95.92
43155;BME280;34212;51.018;13.586;2023-02-18T21:32:08;97779.34;;;9.38;95.85
43155;BME280;34212;51.018;13.586;2023-02-18T21:37:45;97785.16;;;9.42;96.02
43155;BME280;34212;51.018;13.586;2023-02-18T21:42:53;97772.50;;;9.44;94.86
43155;BME280;34212;51.018;13.586;2023-02-18T21:48:47;97767.34;;;9.42;94.97
43155;BME280;34212;51.018;13.586;2023-02-18T21:54:42;97757.22;;;9.38;94.89
43155;BME280;34212;51.018;13.586;2023-02-18T22:01:13;97753.56;;;9.31;94.71
43155;BME280;34212;51.018;13.586;2023-02-18T22:06:09;97758.41;;;9.27;94.58
43155;BME280;34212;51.018;13.586;2023-02-18T22:11:29;97770.56;;;9.30;95.31
43155;BME280;34212;51.018;13.586;2023-02-18T22:16:30;97781.19;;;9.38;94.99
43155;BME280;34212;51.018;13.586;2023-02-18T22:21:32;97784.19;;;9.35;94.76
43155;BME280;34212;51.018;13.586;2023-02-18T22:26:33;97778.25;;;9.16;94.53
43155;BME280;34212;51.018;13.586;2023-02-18T22:31:35;97783.59;;;9.08;95.71
43155;BME280;34212;51.018;13.586;2023-02-18T22:36:37;97777.59;;;9.06;95.34
43155;BME280;34212;51.018;13.586;2023-02-18T22:41:39;97774.78;;;9.08;95.85
43155;BME280;34212;51.018;13.586;2023-02-18T22:46:40;97772.28;;;9.06;95.77
43155;BME280;34212;51.018;13.586;2023-02-18T22:51:43;97774.94;;;9.06;96.04
43155;BME280;34212;51.018;13.586;2023-02-18T22:56:45;97770.28;;;9.08;96.20
43155;BME280;34212;51.018;13.586;2023-02-18T23:01:48;97782.25;;;9.12;96.31
43155;BME280;34212;51.018;13.586;2023-02-18T23:06:50;97782.91;;;9.14;96.37
43155;BME280;34212;51.018;13.586;2023-02-18T23:11:54;97788.91;;;9.16;95.86
43155;BME280;34212;51.018;13.586;2023-02-18T23:16:58;97785.22;;;9.17;95.55
43155;BME280;34212;51.018;13.586;2023-02-18T23:22:24;97792.03;;;9.20;95.49
43155;BME280;34212;51.018;13.586;2023-02-18T23:27:29;97774.06;;;9.22;95.28
43155;BME280;34212;51.018;13.586;2023-02-18T23:32:30;97789.03;;;9.23;95.12
43155;BME280;34212;51.018;13.586;2023-02-18T23:37:32;97781.06;;;9.23;95.10
43155;BME280;34212;51.018;13.586;2023-02-18T23:42:52;97774.91;;;9.22;94.56
43155;BME280;34212;51.018;13.586;2023-02-18T23:47:54;97775.91;;;9.21;94.23
43155;BME280;34212;51.018;13.586;2023-02-18T23:52:55;97767.75;;;9.23;94.61
43155;BME280;34212;51.018;13.586;2023-02-18T23:57:57;97756.28;;;9.22;94.48
